createdAt,value
2022-11-19T00:01:26.556Z,11.40
2022-11-19T00:03:53.502Z,10.27
2022-11-19T00:06:23.585Z,14.30
2022-11-19T00:08:50.313Z,10.97
2022-11-19T00:11:39.283Z,10.37
2022-11-19T00:14:06.091Z,11.77
2022-11-19T00:16:32.690Z,11.30
2022-11-19T00:18:59.350Z,11.03
2022-11-19T00:21:25.897Z,12.60
2022-11-19T00:23:55.409Z,13.27
2022-11-19T00:29:06.094Z,11.67
2022-11-19T00:31:32.705Z,12.50
2022-11-19T00:33:59.711Z,12.47
2022-11-19T00:36:26.211Z,13.53
2022-11-19T00:38:52.806Z,13.50
2022-11-19T00:41:19.300Z,13.23
2022-11-19T00:43:49.408Z,12.43
2022-11-19T00:46:23.216Z,12.33
2022-11-19T00:48:50.208Z,13.57
2022-11-19T00:51:17.309Z,12.93
2022-11-19T00:53:43.947Z,13.47
2022-11-19T00:56:11.671Z,13.00
2022-11-19T00:58:38.234Z,12.73
2022-11-19T01:01:05.483Z,13.80
2022-11-19T01:03:33.456Z,13.23
2022-11-19T01:06:00.061Z,12.87
2022-11-19T01:08:26.914Z,12.50
2022-11-19T01:10:53.403Z,12.50
2022-11-19T01:13:35.101Z,12.73
2022-11-19T01:16:04.321Z,12.50
2022-11-19T01:18:30.810Z,12.60
2022-11-19T01:20:57.441Z,12.47
2022-11-19T01:23:24.030Z,13.03
2022-11-19T01:25:50.535Z,12.33
2022-11-19T01:28:17.098Z,12.40
2022-11-19T01:30:43.645Z,13.03
2022-11-19T01:33:10.208Z,12.90
2022-11-19T01:35:36.957Z,12.30
2022-11-19T01:38:03.568Z,12.37
2022-11-19T01:40:30.078Z,11.40
2022-11-19T01:42:56.607Z,11.77
2022-11-19T01:45:28.441Z,12.13
2022-11-19T01:47:55.433Z,13.07
2022-11-19T01:53:08.900Z,12.10
2022-11-19T01:55:35.821Z,12.67
2022-11-19T01:58:02.560Z,12.60
2022-11-19T02:00:29.099Z,12.67
2022-11-19T02:02:58.675Z,12.37
2022-11-19T02:05:25.459Z,12.70
2022-11-19T02:07:53.768Z,11.93
2022-11-19T02:13:04.374Z,11.40
2022-11-19T02:15:30.987Z,13.27
2022-11-19T02:17:57.626Z,12.43
2022-11-19T02:23:17.448Z,13.00
2022-11-19T02:25:53.145Z,12.90
2022-11-19T02:28:38.240Z,13.10
2022-11-19T02:34:09.065Z,13.50
2022-11-19T02:36:46.819Z,12.97
2022-11-19T02:39:16.867Z,13.63
2022-11-19T02:41:43.815Z,14.07
2022-11-19T02:44:36.569Z,14.13
2022-11-19T02:47:04.196Z,12.77
2022-11-19T02:49:31.449Z,11.67
2022-11-19T02:54:42.487Z,11.87
2022-11-19T02:57:09.748Z,9.97
2022-11-19T03:00:14.219Z,12.00
2022-11-19T03:03:01.032Z,10.47
2022-11-19T03:05:28.495Z,9.97
2022-11-19T03:07:54.988Z,10.30
2022-11-19T03:13:32.789Z,10.50
2022-11-19T03:19:05.024Z,9.03
2022-11-19T03:21:33.734Z,8.67
2022-11-19T03:24:00.864Z,9.63
2022-11-19T03:26:31.077Z,8.10
2022-11-19T03:31:44.192Z,10.00
2022-11-19T03:34:12.415Z,11.33
2022-11-19T03:36:39.760Z,11.37
2022-11-19T03:39:09.050Z,12.40
2022-11-19T03:44:21.787Z,9.67
2022-11-19T03:46:49.230Z,9.40
2022-11-19T03:49:15.796Z,8.40
2022-11-19T03:51:44.358Z,8.57
2022-11-19T03:54:10.901Z,9.13
2022-11-19T03:56:37.785Z,9.13
2022-11-19T03:59:04.657Z,8.80
2022-11-19T04:01:31.428Z,8.90
2022-11-19T04:04:16.505Z,9.33
2022-11-19T04:06:43.105Z,8.93
2022-11-19T04:09:09.605Z,9.00
2022-11-19T04:11:36.483Z,8.67
2022-11-19T04:14:03.839Z,8.27
2022-11-19T04:16:30.560Z,8.97
2022-11-19T04:18:57.077Z,8.43
2022-11-19T04:21:23.636Z,9.17
2022-11-19T04:23:50.162Z,8.73
2022-11-19T04:26:16.734Z,9.30
2022-11-19T04:28:43.253Z,9.17
2022-11-19T04:31:13.618Z,9.17
2022-11-19T04:33:44.103Z,8.30
2022-11-19T04:36:10.854Z,8.80
2022-11-19T04:38:37.724Z,7.90
2022-11-19T04:41:04.445Z,8.40
2022-11-19T04:43:31.141Z,8.37
2022-11-19T04:45:57.681Z,8.27
2022-11-19T04:48:24.280Z,8.97
2022-11-19T04:50:50.811Z,8.33
2022-11-19T04:53:17.589Z,7.53
2022-11-19T04:55:44.127Z,8.50
2022-11-19T04:58:10.727Z,7.40
2022-11-19T05:00:37.232Z,7.90
2022-11-19T05:03:03.981Z,7.87
2022-11-19T05:05:30.526Z,8.03
2022-11-19T05:07:57.141Z,8.73
2022-11-19T05:10:23.669Z,8.80
2022-11-19T05:12:50.210Z,9.13
2022-11-19T05:15:16.757Z,8.80
2022-11-19T05:17:44.356Z,8.83
2022-11-19T05:20:10.948Z,9.30
2022-11-19T05:22:37.535Z,8.83
2022-11-19T05:25:06.455Z,9.43
2022-11-19T05:27:33.217Z,9.03
2022-11-19T05:29:59.795Z,9.23
2022-11-19T05:32:26.431Z,9.07
2022-11-19T05:34:52.992Z,9.77
2022-11-19T05:37:19.604Z,9.53
2022-11-19T05:39:46.116Z,9.00
2022-11-19T05:42:12.849Z,10.13
2022-11-19T05:44:39.402Z,9.60
2022-11-19T05:47:07.259Z,8.50
2022-11-19T05:49:33.884Z,9.63
2022-11-19T05:52:00.539Z,8.63
2022-11-19T05:57:11.161Z,9.30
2022-11-19T06:02:23.183Z,8.97
2022-11-19T06:07:34.112Z,9.73
2022-11-19T06:10:00.779Z,10.70
2022-11-19T06:12:27.356Z,9.43
2022-11-19T06:14:54.089Z,9.80
2022-11-19T06:17:20.913Z,9.40
2022-11-19T06:19:47.472Z,10.77
2022-11-19T06:22:14.080Z,10.77
2022-11-19T06:24:40.586Z,10.47
2022-11-19T06:27:07.507Z,10.70
2022-11-19T06:29:34.094Z,10.77
2022-11-19T06:32:00.754Z,9.57
2022-11-19T06:34:27.275Z,9.40
2022-11-19T06:36:53.956Z,8.83
2022-11-19T06:39:20.886Z,9.47
2022-11-19T06:41:48.954Z,8.57
2022-11-19T06:44:15.602Z,9.63
2022-11-19T06:46:42.230Z,9.37
2022-11-19T06:49:09.121Z,8.97
2022-11-19T06:51:36.157Z,9.03
2022-11-19T06:54:02.811Z,9.13
2022-11-19T06:56:29.468Z,8.97
2022-11-19T06:58:58.285Z,9.83
2022-11-19T07:01:25.004Z,9.83
2022-11-19T07:03:51.533Z,9.10
2022-11-19T07:06:18.143Z,11.30
2022-11-19T07:08:44.681Z,12.17
2022-11-19T07:11:40.365Z,10.93
2022-11-19T07:14:07.450Z,10.73
2022-11-19T07:16:34.548Z,10.63
2022-11-19T07:21:46.207Z,11.63
2022-11-19T07:26:57.487Z,10.60
2022-11-19T07:32:08.187Z,11.33
2022-11-19T07:34:34.856Z,11.90
2022-11-19T07:37:02.030Z,11.73
2022-11-19T07:39:28.990Z,11.57
2022-11-19T07:42:14.276Z,11.13
2022-11-19T07:44:41.045Z,10.37
2022-11-19T07:47:07.864Z,11.07
2022-11-19T07:49:34.560Z,10.93
2022-11-19T07:52:01.239Z,12.10
2022-11-19T07:54:27.949Z,11.73
2022-11-19T07:56:55.666Z,11.37
2022-11-19T07:59:22.755Z,11.70
2022-11-19T08:01:49.527Z,11.37
2022-11-19T08:04:16.492Z,12.27
2022-11-19T08:06:43.103Z,11.80
2022-11-19T08:09:09.836Z,12.03
2022-11-19T08:11:36.540Z,11.40
2022-11-19T08:14:03.195Z,12.30
2022-11-19T08:16:48.393Z,11.83
2022-11-19T08:19:15.844Z,11.73
2022-11-19T08:21:43.184Z,11.27
2022-11-19T08:24:09.930Z,10.03
2022-11-19T08:26:36.823Z,11.10
2022-11-19T08:29:03.910Z,10.33
2022-11-19T08:34:15.793Z,9.97
2022-11-19T08:36:42.531Z,9.97
2022-11-19T08:39:10.002Z,10.37
2022-11-19T08:41:55.360Z,10.47
2022-11-19T08:44:22.846Z,10.27
2022-11-19T08:46:50.749Z,9.70
2022-11-19T08:49:17.761Z,11.07
2022-11-19T08:51:44.869Z,10.43
2022-11-19T08:54:13.229Z,10.43
2022-11-19T08:56:40.241Z,9.77
2022-11-19T08:59:07.144Z,10.33
2022-11-19T09:01:33.904Z,10.03
2022-11-19T09:04:01.244Z,10.60
2022-11-19T09:06:28.064Z,10.00
2022-11-19T09:08:55.061Z,9.83
2022-11-19T09:11:22.453Z,9.87
2022-11-19T09:13:49.283Z,9.87
2022-11-19T09:16:16.039Z,9.20
2022-11-19T09:18:42.680Z,10.37
2022-11-19T09:21:09.843Z,10.70
2022-11-19T09:23:36.550Z,9.40
2022-11-19T09:26:07.775Z,9.90
2022-11-19T09:28:34.642Z,9.33
2022-11-19T09:31:02.552Z,10.63
2022-11-19T09:33:29.398Z,9.83
2022-11-19T09:35:56.168Z,11.97
2022-11-19T09:38:23.313Z,11.27
2022-11-19T09:43:43.634Z,9.27
2022-11-19T09:46:30.445Z,10.93
2022-11-19T09:48:59.570Z,10.07
2022-11-19T09:51:30.038Z,10.47
2022-11-19T09:53:59.201Z,10.27
2022-11-19T09:56:26.651Z,9.13
2022-11-19T09:58:53.646Z,11.00
2022-11-19T10:04:04.781Z,10.70
2022-11-19T10:07:00.773Z,9.90
2022-11-19T10:09:31.098Z,9.53
2022-11-19T10:12:16.650Z,9.63
2022-11-19T10:15:09.505Z,9.20
2022-11-19T10:17:36.205Z,9.80
2022-11-19T10:20:14.937Z,9.93
2022-11-19T10:23:04.625Z,9.03
2022-11-19T10:25:36.474Z,8.90
2022-11-19T10:28:11.968Z,10.13
2022-11-19T10:30:39.048Z,9.77
2022-11-19T10:33:16.359Z,9.50
2022-11-19T10:35:44.353Z,9.33
2022-11-19T10:38:18.348Z,9.87
2022-11-19T10:40:46.775Z,9.37
2022-11-19T10:43:23.663Z,9.43
2022-11-19T10:45:50.665Z,9.20
2022-11-19T10:48:21.287Z,9.00
2022-11-19T10:50:47.914Z,9.50
2022-11-19T10:53:32.194Z,9.13
2022-11-19T10:56:00.144Z,8.50
2022-11-19T10:58:29.557Z,8.87
2022-11-19T11:00:56.752Z,8.73
2022-11-19T11:03:27.526Z,9.00
2022-11-19T11:06:05.599Z,9.27
2022-11-19T11:08:32.657Z,8.53
2022-11-19T11:10:59.519Z,8.53
2022-11-19T11:16:45.594Z,9.13
2022-11-19T11:19:20.065Z,8.63
2022-11-19T11:21:47.312Z,8.80
2022-11-19T11:24:14.017Z,8.80
2022-11-19T11:26:40.889Z,9.30
2022-11-19T11:29:11.101Z,8.90
2022-11-19T11:31:40.630Z,8.60
2022-11-19T11:34:09.947Z,9.03
2022-11-19T11:36:36.786Z,8.53
2022-11-19T11:39:03.907Z,8.93
2022-11-19T11:44:21.016Z,8.23
2022-11-19T11:46:51.412Z,8.23
2022-11-19T11:49:51.739Z,8.77
2022-11-19T11:52:19.411Z,9.13
2022-11-19T11:54:56.788Z,8.53
2022-11-19T11:57:24.600Z,8.87
2022-11-19T11:59:51.198Z,9.00
2022-11-19T12:02:27.293Z,7.40
2022-11-19T12:04:54.889Z,9.63
2022-11-19T12:10:26.035Z,8.60
2022-11-19T12:13:05.196Z,9.03
2022-11-19T12:15:41.561Z,9.20
2022-11-19T12:18:14.454Z,8.63
2022-11-19T12:20:43.959Z,9.23
2022-11-19T12:23:13.240Z,9.70
2022-11-19T12:25:51.799Z,8.43
2022-11-19T12:28:21.210Z,8.63
2022-11-19T12:31:06.609Z,9.23
2022-11-19T12:34:02.560Z,8.80
2022-11-19T12:36:29.521Z,9.50
2022-11-19T12:39:15.247Z,10.47
2022-11-19T12:44:33.823Z,11.30
2022-11-19T12:47:00.716Z,11.57
2022-11-19T12:49:30.402Z,11.47
2022-11-19T12:52:03.539Z,10.50
2022-11-19T12:54:43.564Z,11.50
2022-11-19T12:57:10.543Z,12.43
2022-11-19T13:00:06.331Z,11.93
2022-11-19T13:02:35.871Z,14.00
2022-11-19T13:05:04.497Z,13.03
2022-11-19T13:07:32.960Z,12.53
2022-11-19T13:10:02.137Z,11.37
2022-11-19T13:12:39.820Z,12.47
2022-11-19T13:15:31.257Z,11.77
2022-11-19T13:17:58.929Z,11.67
2022-11-19T13:20:34.110Z,11.30
2022-11-19T13:23:04.777Z,12.13
2022-11-19T13:25:46.073Z,11.77
2022-11-19T13:28:20.845Z,10.97
2022-11-19T13:30:47.895Z,12.20
2022-11-19T13:33:14.675Z,12.17
2022-11-19T13:35:53.019Z,11.83
2022-11-19T13:38:43.729Z,11.00
2022-11-19T13:41:13.283Z,12.07
2022-11-19T13:44:00.020Z,11.53
2022-11-19T13:49:15.703Z,12.13
2022-11-19T13:51:46.164Z,14.97
2022-11-19T13:54:20.377Z,14.50
2022-11-19T13:56:47.617Z,11.83
2022-11-19T13:59:26.453Z,12.70
2022-11-19T14:01:56.319Z,12.33
2022-11-19T14:04:41.605Z,12.20
2022-11-19T14:07:23.634Z,11.97
2022-11-19T14:09:55.864Z,11.93
2022-11-19T14:12:31.908Z,12.53
2022-11-19T14:15:36.420Z,10.77
2022-11-19T14:18:57.774Z,11.70
2022-11-19T14:21:43.311Z,11.57
2022-11-19T14:24:43.929Z,11.43
2022-11-19T14:27:20.478Z,11.10
2022-11-19T14:29:47.814Z,10.87
2022-11-19T14:32:17.807Z,11.63
2022-11-19T14:35:03.027Z,11.43
2022-11-19T14:37:42.173Z,11.03
2022-11-19T14:40:21.448Z,11.47
2022-11-19T14:43:19.817Z,11.90
2022-11-19T14:46:10.439Z,11.50
2022-11-19T14:48:40.042Z,12.40
2022-11-19T14:51:10.492Z,12.20
2022-11-19T14:53:37.702Z,12.07
2022-11-19T14:56:10.995Z,13.40
2022-11-19T14:58:37.632Z,12.60
2022-11-19T15:01:05.725Z,13.53
2022-11-19T15:03:32.612Z,13.60
2022-11-19T15:05:59.251Z,14.63
2022-11-19T15:08:29.749Z,15.10
2022-11-19T15:13:47.908Z,13.90
2022-11-19T15:16:27.761Z,12.93
2022-11-19T15:19:00.348Z,13.73
2022-11-19T15:21:53.724Z,14.93
2022-11-19T15:24:44.416Z,15.73
2022-11-19T15:27:20.288Z,15.67
2022-11-19T15:29:59.488Z,14.00
2022-11-19T15:32:29.581Z,14.20
2022-11-19T15:35:10.422Z,12.90
2022-11-19T15:37:58.610Z,13.33
2022-11-19T15:40:28.233Z,12.40
2022-11-19T15:43:15.373Z,13.30
2022-11-19T15:45:47.344Z,12.17
2022-11-19T15:48:16.265Z,12.23
2022-11-19T15:50:43.385Z,10.83
2022-11-19T15:53:16.705Z,11.07
2022-11-19T15:56:00.009Z,10.70
2022-11-19T15:58:28.473Z,12.30
2022-11-19T16:00:55.255Z,11.93
2022-11-19T16:03:22.523Z,12.90
2022-11-19T16:06:12.860Z,15.13
2022-11-19T16:08:39.625Z,15.47
2022-11-19T16:11:24.839Z,15.53
2022-11-19T16:14:11.313Z,16.43
2022-11-19T16:16:56.417Z,15.90
2022-11-19T16:19:23.590Z,15.73
2022-11-19T16:21:57.958Z,16.57
2022-11-19T16:24:43.503Z,15.77
2022-11-19T16:27:12.198Z,14.73
2022-11-19T16:29:42.349Z,14.90
2022-11-19T16:32:09.003Z,13.70
2022-11-19T16:34:36.931Z,12.60
2022-11-19T16:37:03.675Z,12.20
2022-11-19T16:39:33.860Z,10.83
2022-11-19T16:42:18.551Z,11.73
2022-11-19T16:44:53.630Z,12.73
2022-11-19T16:47:21.729Z,12.43
2022-11-19T16:49:50.675Z,11.90
2022-11-19T16:52:32.748Z,13.13
2022-11-19T16:54:59.647Z,14.13
2022-11-19T16:57:26.718Z,14.77
2022-11-19T16:59:57.729Z,14.03
2022-11-19T17:02:50.978Z,14.30
2022-11-19T17:08:08.293Z,14.17
2022-11-19T17:10:37.514Z,13.30
2022-11-19T17:13:14.426Z,14.43
2022-11-19T17:15:42.298Z,14.17
2022-11-19T17:18:13.606Z,14.40
2022-11-19T17:20:48.360Z,14.37
2022-11-19T17:23:19.452Z,15.83
2022-11-19T17:28:46.617Z,12.67
2022-11-19T17:31:15.144Z,13.03
2022-11-19T17:33:52.314Z,14.23
2022-11-19T17:36:19.429Z,13.93
2022-11-19T17:38:46.684Z,14.37
2022-11-19T17:41:14.056Z,14.77
2022-11-19T17:46:44.981Z,14.60
2022-11-19T17:49:12.311Z,15.50
2022-11-19T17:51:39.048Z,13.90
2022-11-19T17:54:05.962Z,13.33
2022-11-19T17:56:34.147Z,13.30
2022-11-19T17:59:01.274Z,14.53
2022-11-19T18:01:28.160Z,15.10
2022-11-19T18:03:55.113Z,13.13
2022-11-19T18:06:21.726Z,14.33
2022-11-19T18:08:48.274Z,14.47
2022-11-19T18:11:18.996Z,14.97
2022-11-19T18:13:45.914Z,14.43
2022-11-19T18:16:13.415Z,13.73
2022-11-19T18:18:40.057Z,12.40
2022-11-19T18:21:09.015Z,13.30
2022-11-19T18:23:35.679Z,12.47
2022-11-19T18:26:02.272Z,12.20
2022-11-19T18:28:29.424Z,12.93
2022-11-19T18:30:57.931Z,13.47
2022-11-19T18:33:24.662Z,13.43
2022-11-19T18:35:53.902Z,13.33
2022-11-19T18:38:20.481Z,14.00
2022-11-19T18:40:47.037Z,14.17
2022-11-19T18:43:37.484Z,14.23
2022-11-19T18:46:06.695Z,14.63
2022-11-19T18:48:33.733Z,14.70
2022-11-19T18:51:00.788Z,13.63
2022-11-19T18:53:27.341Z,13.70
2022-11-19T18:55:54.333Z,12.77
2022-11-19T18:58:20.947Z,12.70
2022-11-19T19:00:48.744Z,12.97
2022-11-19T19:03:15.506Z,12.23
2022-11-19T19:05:42.372Z,12.70
2022-11-19T19:08:09.158Z,12.50
2022-11-19T19:10:36.464Z,12.80
2022-11-19T19:13:03.379Z,12.47
2022-11-19T19:15:31.401Z,12.63
2022-11-19T19:17:57.955Z,11.73
2022-11-19T19:20:24.752Z,13.23
2022-11-19T19:25:38.035Z,12.17
2022-11-19T19:28:05.080Z,11.97
2022-11-19T19:30:32.817Z,11.47
2022-11-19T19:32:59.565Z,11.87
2022-11-19T19:38:11.711Z,11.40
2022-11-19T19:40:38.510Z,12.73
2022-11-19T19:43:06.368Z,11.97
2022-11-19T19:45:36.183Z,12.60
2022-11-19T19:48:03.453Z,11.93
2022-11-19T19:50:32.276Z,12.77
2022-11-19T19:52:59.304Z,12.17
2022-11-19T19:58:10.917Z,11.43
2022-11-19T20:00:37.598Z,11.87
2022-11-19T20:03:04.720Z,12.20
2022-11-19T20:05:31.450Z,12.30
2022-11-19T20:08:00.927Z,13.40
2022-11-19T20:10:27.575Z,12.70
2022-11-19T20:13:13.342Z,13.87
2022-11-19T20:15:41.331Z,13.03
2022-11-19T20:18:07.859Z,13.40
2022-11-19T20:20:34.505Z,14.27
2022-11-19T20:23:01.117Z,13.30
2022-11-19T20:25:27.772Z,13.70
2022-11-19T20:27:55.239Z,12.97
2022-11-19T20:30:22.029Z,14.53
2022-11-19T20:32:50.258Z,15.40
2022-11-19T20:35:18.516Z,14.37
2022-11-19T20:37:45.200Z,14.70
2022-11-19T20:40:11.984Z,15.00
2022-11-19T20:42:57.303Z,14.60
2022-11-19T20:45:26.799Z,14.00
2022-11-19T20:47:54.779Z,14.03
2022-11-19T20:50:21.428Z,14.37
2022-11-19T20:52:48.327Z,14.57
2022-11-19T20:55:15.230Z,15.10
2022-11-19T20:57:44.090Z,14.70
2022-11-19T21:00:11.311Z,16.07
2022-11-19T21:02:37.979Z,13.67
2022-11-19T21:05:06.173Z,14.87
2022-11-19T21:07:33.153Z,15.57
2022-11-19T21:10:04.830Z,16.47
2022-11-19T21:12:36.900Z,15.80
2022-11-19T21:15:04.766Z,15.87
2022-11-19T21:17:31.351Z,15.03
2022-11-19T21:19:58.250Z,15.43
2022-11-19T21:22:24.993Z,16.20
2022-11-19T21:24:53.846Z,16.97
2022-11-19T21:27:20.948Z,16.77
2022-11-19T21:29:47.707Z,16.47
2022-11-19T21:32:16.078Z,17.67
2022-11-19T21:34:43.856Z,15.77
2022-11-19T21:37:10.778Z,17.53
2022-11-19T21:39:37.832Z,17.13
2022-11-19T21:42:04.621Z,17.70
2022-11-19T21:44:33.830Z,17.47
2022-11-19T21:47:01.507Z,19.53
2022-11-19T21:49:28.310Z,16.57
2022-11-19T21:51:55.272Z,18.87
2022-11-19T21:54:22.266Z,17.27
2022-11-19T21:56:49.171Z,18.10
2022-11-19T21:59:16.448Z,17.03
2022-11-19T22:01:54.414Z,18.83
2022-11-19T22:04:21.802Z,17.93
2022-11-19T22:06:48.395Z,18.77
2022-11-19T22:09:15.541Z,18.43
2022-11-19T22:11:42.306Z,18.93
2022-11-19T22:14:09.665Z,18.80
2022-11-19T22:16:39.205Z,16.93
2022-11-19T22:19:06.509Z,17.67
2022-11-19T22:21:33.521Z,17.13
2022-11-19T22:24:00.187Z,15.63
2022-11-19T22:26:27.135Z,16.80
2022-11-19T22:28:57.456Z,17.67
2022-11-19T22:31:24.706Z,16.83
2022-11-19T22:33:53.518Z,16.30
2022-11-19T22:36:20.574Z,17.30
2022-11-19T22:38:48.774Z,18.67
2022-11-19T22:44:03.266Z,17.43
2022-11-19T22:49:14.194Z,18.60
2022-11-19T22:51:41.369Z,18.27
2022-11-19T22:54:11.675Z,18.87
2022-11-19T22:56:38.528Z,18.20
2022-11-19T23:01:49.307Z,18.40
2022-11-19T23:07:00.272Z,18.80
2022-11-19T23:09:26.851Z,18.27
2022-11-19T23:12:12.137Z,17.60
2022-11-19T23:14:38.718Z,17.43
2022-11-19T23:17:05.226Z,18.60
2022-11-19T23:19:31.814Z,18.80
2022-11-19T23:21:58.454Z,18.80
2022-11-19T23:24:25.000Z,18.23
2022-11-19T23:26:51.559Z,17.30
2022-11-19T23:29:18.740Z,18.07
2022-11-19T23:31:45.467Z,18.97
2022-11-19T23:34:12.126Z,19.27
2022-11-19T23:39:23.793Z,18.47
2022-11-19T23:41:50.457Z,18.87
2022-11-19T23:44:17.084Z,19.23
2022-11-19T23:46:43.586Z,19.00
2022-11-19T23:49:10.502Z,20.07
2022-11-19T23:51:37.368Z,19.00
2022-11-19T23:54:04.117Z,19.67
2022-11-19T23:56:31.253Z,19.70
2022-11-19T23:58:57.898Z,19.73
